createdAt,value
2022-09-28T00:00:36.432Z,8.88
2022-09-28T00:01:36.474Z,8.92
2022-09-28T00:02:36.523Z,9.00
2022-09-28T00:03:37.432Z,8.95
2022-09-28T00:04:36.400Z,8.99
2022-09-28T00:05:36.388Z,9.06
2022-09-28T00:06:36.381Z,9.16
2022-09-28T00:07:36.373Z,9.00
2022-09-28T00:08:36.394Z,8.99
2022-09-28T00:09:36.357Z,9.08
2022-09-28T00:10:36.345Z,9.14
2022-09-28T00:11:36.344Z,9.18
2022-09-28T00:12:36.338Z,9.16
2022-09-28T00:13:36.351Z,9.03
2022-09-28T00:14:36.318Z,9.14
2022-09-28T00:15:36.310Z,9.18
2022-09-28T00:16:36.353Z,9.14
2022-09-28T00:17:36.296Z,9.23
2022-09-28T00:18:36.320Z,9.23
2022-09-28T00:19:36.277Z,9.25
2022-09-28T00:20:36.271Z,9.23
2022-09-28T00:21:36.259Z,9.31
2022-09-28T00:22:36.252Z,9.25
2022-09-28T00:23:36.271Z,9.31
2022-09-28T00:24:36.238Z,9.31
2022-09-28T00:25:36.234Z,9.31
2022-09-28T00:26:36.228Z,9.37
2022-09-28T00:27:36.218Z,9.46
2022-09-28T00:28:36.230Z,9.41
2022-09-28T00:29:36.197Z,9.41
2022-09-28T00:30:36.189Z,9.37
2022-09-28T00:31:36.240Z,9.36
2022-09-28T00:32:36.175Z,9.43
2022-09-28T00:33:36.196Z,9.44
2022-09-28T00:34:36.163Z,9.32
2022-09-28T00:35:36.149Z,9.43
2022-09-28T00:36:36.142Z,9.37
2022-09-28T00:37:36.137Z,9.44
2022-09-28T00:38:36.135Z,9.41
2022-09-28T00:39:36.144Z,9.44
2022-09-28T00:40:36.162Z,9.46
2022-09-28T00:41:36.104Z,9.50
2022-09-28T00:42:36.096Z,9.40
2022-09-28T00:43:36.086Z,9.41
2022-09-28T00:44:36.105Z,9.46
2022-09-28T00:45:36.141Z,9.40
2022-09-28T00:46:36.068Z,9.41
2022-09-28T00:47:36.055Z,9.50
2022-09-28T00:48:36.051Z,9.46
2022-09-28T00:49:36.066Z,9.48
2022-09-28T00:50:36.035Z,9.41
2022-09-28T00:51:36.026Z,9.54
2022-09-28T00:52:36.021Z,9.44
2022-09-28T00:53:36.011Z,9.51
2022-09-28T00:54:36.029Z,9.44
2022-09-28T00:55:36.005Z,9.54
2022-09-28T00:56:35.992Z,9.43
2022-09-28T00:57:35.986Z,9.47
2022-09-28T00:58:35.974Z,9.48
2022-09-28T00:59:35.989Z,9.39
2022-09-28T01:00:35.975Z,9.43
2022-09-28T01:01:35.952Z,9.47
2022-09-28T01:02:35.944Z,9.51
2022-09-28T01:03:35.936Z,9.43
2022-09-28T01:04:35.957Z,9.41
2022-09-28T01:05:35.922Z,9.41
2022-09-28T01:06:35.934Z,9.41
2022-09-28T01:07:35.910Z,9.47
2022-09-28T01:08:35.902Z,9.37
2022-09-28T01:09:35.916Z,9.41
2022-09-28T01:10:35.888Z,9.44
2022-09-28T01:11:35.950Z,9.47
2022-09-28T01:12:35.873Z,9.41
2022-09-28T01:13:35.864Z,9.50
2022-09-28T01:14:35.879Z,9.51
2022-09-28T01:15:35.846Z,9.51
2022-09-28T01:16:35.857Z,9.54
2022-09-28T01:17:35.832Z,9.46
2022-09-28T01:18:35.824Z,9.48
2022-09-28T01:19:35.846Z,9.48
2022-09-28T01:20:35.809Z,9.51
2022-09-28T01:21:35.799Z,9.43
2022-09-28T01:22:35.790Z,9.44
2022-09-28T01:23:35.827Z,9.40
2022-09-28T01:24:35.805Z,9.51
2022-09-28T01:25:35.769Z,9.50
2022-09-28T01:26:35.764Z,9.40
2022-09-28T01:27:35.753Z,9.48
2022-09-28T01:28:35.747Z,9.40
2022-09-28T01:29:35.735Z,9.51
2022-09-28T01:30:35.755Z,9.51
2022-09-28T01:31:35.796Z,9.41
2022-09-28T01:32:35.721Z,9.47
2022-09-28T01:33:35.709Z,9.51
2022-09-28T01:34:35.701Z,9.59
2022-09-28T01:35:35.718Z,9.55
2022-09-28T01:36:35.683Z,9.58
2022-09-28T01:37:35.680Z,9.56
2022-09-28T01:38:35.671Z,9.51
2022-09-28T01:39:35.759Z,9.48
2022-09-28T01:40:35.746Z,9.59
2022-09-28T01:41:35.648Z,9.56
2022-09-28T01:42:35.641Z,9.58
2022-09-28T01:43:35.630Z,9.58
2022-09-28T01:44:35.663Z,9.56
2022-09-28T01:45:35.729Z,9.66
2022-09-28T01:46:35.607Z,9.55
2022-09-28T01:47:35.599Z,9.72
2022-09-28T01:48:35.594Z,9.59
2022-09-28T01:49:35.617Z,9.62
2022-09-28T01:50:36.605Z,9.74
2022-09-28T01:51:35.572Z,9.51
2022-09-28T01:52:35.565Z,9.51
2022-09-28T01:53:35.560Z,9.55
2022-09-28T01:54:35.551Z,9.59
2022-09-28T01:55:35.572Z,9.58
2022-09-28T01:56:35.538Z,9.56
2022-09-28T01:57:35.531Z,9.54
2022-09-28T01:58:35.525Z,9.47
2022-09-28T01:59:35.510Z,9.44
2022-09-28T02:00:35.564Z,9.47
2022-09-28T02:01:36.496Z,9.44
2022-09-28T02:02:35.552Z,9.54
2022-09-28T02:03:35.486Z,9.51
2022-09-28T02:04:35.490Z,9.47
2022-09-28T02:05:35.490Z,9.51
2022-09-28T02:06:35.459Z,9.48
2022-09-28T02:07:35.447Z,9.48
2022-09-28T02:08:35.440Z,9.50
2022-09-28T02:09:35.434Z,9.47
2022-09-28T02:10:35.449Z,9.50
2022-09-28T02:11:35.418Z,9.48
2022-09-28T02:12:35.398Z,9.51
2022-09-28T02:13:36.397Z,9.51
2022-09-28T02:14:35.392Z,9.41
2022-09-28T02:15:35.407Z,9.47
2022-09-28T02:16:35.402Z,9.51
2022-09-28T02:17:35.368Z,9.44
2022-09-28T02:18:35.362Z,9.50
2022-09-28T02:19:35.357Z,9.44
2022-09-28T02:20:35.369Z,9.40
2022-09-28T02:21:35.339Z,9.54
2022-09-28T02:22:35.328Z,9.48
2022-09-28T02:23:35.320Z,9.47
2022-09-28T02:24:35.313Z,9.50
2022-09-28T02:25:35.333Z,9.41
2022-09-28T02:26:35.297Z,9.48
2022-09-28T02:27:35.291Z,9.58
2022-09-28T02:28:35.287Z,9.43
2022-09-28T02:29:35.274Z,9.39
2022-09-28T02:30:35.291Z,9.40
2022-09-28T02:31:35.337Z,9.36
2022-09-28T02:32:35.253Z,9.47
2022-09-28T02:33:35.241Z,9.40
2022-09-28T02:34:35.237Z,9.34
2022-09-28T02:35:35.255Z,9.37
2022-09-28T02:36:35.221Z,9.50
2022-09-28T02:37:35.210Z,9.41
2022-09-28T02:38:35.203Z,9.28
2022-09-28T02:39:35.200Z,9.41
2022-09-28T02:40:35.251Z,9.39
2022-09-28T02:41:35.182Z,9.46
2022-09-28T02:42:35.174Z,9.41
2022-09-28T02:43:35.164Z,9.43
2022-09-28T02:44:35.155Z,9.39
2022-09-28T02:45:35.189Z,9.39
2022-09-28T02:46:35.144Z,9.46
2022-09-28T02:47:35.134Z,9.36
2022-09-28T02:48:43.603Z,9.40
2022-09-28T02:49:37.120Z,9.36
2022-09-28T02:50:35.135Z,9.39
2022-09-28T02:51:35.104Z,9.25
2022-09-28T02:52:35.094Z,9.41
2022-09-28T02:53:35.079Z,9.40
2022-09-28T02:54:36.077Z,9.43
2022-09-28T02:55:35.093Z,9.34
2022-09-28T02:56:35.065Z,9.34
2022-09-28T02:57:35.054Z,9.43
2022-09-28T02:58:35.048Z,9.32
2022-09-28T02:59:35.043Z,9.37
2022-09-28T03:00:35.121Z,9.32
2022-09-28T03:01:35.024Z,9.40
2022-09-28T03:02:35.017Z,9.44
2022-09-28T03:03:35.009Z,9.41
2022-09-28T03:04:35.004Z,9.40
2022-09-28T03:05:35.025Z,9.43
2022-09-28T03:06:34.984Z,9.29
2022-09-28T03:07:34.987Z,9.37
2022-09-28T03:08:34.972Z,9.43
2022-09-28T03:09:34.965Z,9.44
2022-09-28T03:10:34.979Z,9.40
2022-09-28T03:11:34.949Z,9.32
2022-09-28T03:12:34.942Z,9.43
2022-09-28T03:13:34.929Z,9.41
2022-09-28T03:14:34.925Z,9.40
2022-09-28T03:15:34.938Z,9.34
2022-09-28T03:16:34.964Z,9.40
2022-09-28T03:17:34.899Z,9.39
2022-09-28T03:18:34.890Z,9.39
2022-09-28T03:19:34.891Z,9.46
2022-09-28T03:20:34.901Z,9.34
2022-09-28T03:21:34.870Z,9.40
2022-09-28T03:22:34.864Z,9.28
2022-09-28T03:23:34.854Z,9.34
2022-09-28T03:24:34.840Z,9.47
2022-09-28T03:25:34.865Z,9.37
2022-09-28T03:26:34.831Z,9.46
2022-09-28T03:27:34.813Z,9.32
2022-09-28T03:28:35.819Z,9.43
2022-09-28T03:29:34.810Z,9.51
2022-09-28T03:30:34.829Z,9.46
2022-09-28T03:31:34.810Z,9.40
2022-09-28T03:32:34.785Z,9.50
2022-09-28T03:33:34.779Z,9.46
2022-09-28T03:34:34.770Z,9.51
2022-09-28T03:35:34.786Z,9.44
2022-09-28T03:36:34.754Z,9.40
2022-09-28T03:37:34.747Z,9.46
2022-09-28T03:38:34.738Z,9.51
2022-09-28T03:39:34.733Z,9.55
2022-09-28T03:40:34.826Z,9.51
2022-09-28T03:41:34.720Z,9.51
2022-09-28T03:42:34.713Z,9.54
2022-09-28T03:43:34.701Z,9.51
2022-09-28T03:44:34.690Z,9.54
2022-09-28T03:45:34.751Z,9.55
2022-09-28T03:46:34.708Z,9.48
2022-09-28T03:47:34.673Z,9.56
2022-09-28T03:48:34.661Z,9.61
2022-09-28T03:49:34.655Z,9.59
2022-09-28T03:50:34.654Z,9.61
2022-09-28T03:51:34.662Z,9.54
2022-09-28T03:52:34.633Z,9.56
2022-09-28T03:53:34.622Z,9.46
2022-09-28T03:54:34.622Z,9.48
2022-09-28T03:55:34.608Z,9.48
2022-09-28T03:56:34.627Z,9.48
2022-09-28T03:57:34.593Z,9.40
2022-09-28T03:58:34.582Z,9.51
2022-09-28T03:59:34.578Z,9.47
2022-09-28T04:00:34.589Z,9.58
2022-09-28T04:01:34.640Z,9.54
2022-09-28T04:02:34.653Z,9.51
2022-09-28T04:03:34.547Z,9.47
2022-09-28T04:04:34.542Z,9.54
2022-09-28T04:05:34.535Z,9.55
2022-09-28T04:06:34.549Z,9.48
2022-09-28T04:07:34.518Z,9.55
2022-09-28T04:08:34.509Z,9.55
2022-09-28T04:09:34.491Z,9.51
2022-09-28T04:10:35.494Z,9.56
2022-09-28T04:11:43.014Z,9.56
2022-09-28T04:12:36.479Z,9.62
2022-09-28T04:13:34.479Z,9.54
2022-09-28T04:14:34.464Z,9.58
2022-09-28T04:15:34.458Z,9.50
2022-09-28T04:16:34.507Z,9.46
2022-09-28T04:17:39.196Z,9.46
2022-09-28T04:18:36.428Z,9.51
2022-09-28T04:19:34.424Z,9.46
2022-09-28T04:20:34.414Z,9.54
2022-09-28T04:21:34.435Z,9.51
2022-09-28T04:22:34.403Z,9.51
2022-09-28T04:23:34.392Z,9.55
2022-09-28T04:24:34.388Z,9.61
2022-09-28T04:25:34.374Z,9.51
2022-09-28T04:26:34.404Z,9.50
2022-09-28T04:27:34.359Z,9.51
2022-09-28T04:28:34.353Z,9.47
2022-09-28T04:29:34.335Z,9.54
2022-09-28T04:30:35.337Z,9.50
2022-09-28T04:31:34.442Z,9.47
2022-09-28T04:32:34.321Z,9.48
2022-09-28T04:33:34.310Z,9.44
2022-09-28T04:34:36.506Z,9.48
2022-09-28T04:35:35.296Z,9.55
2022-09-28T04:36:34.316Z,9.58
2022-09-28T04:37:34.284Z,9.48
2022-09-28T04:38:51.961Z,9.51
2022-09-28T04:39:36.267Z,9.59
2022-09-28T04:40:34.305Z,9.64
2022-09-28T04:41:34.274Z,9.66
2022-09-28T04:42:34.240Z,9.61
2022-09-28T04:43:34.237Z,9.50
2022-09-28T04:44:34.225Z,9.62
2022-09-28T04:45:34.299Z,9.59
2022-09-28T04:46:34.241Z,9.61
2022-09-28T04:47:34.197Z,9.65
2022-09-28T04:48:35.202Z,9.51
2022-09-28T04:49:34.195Z,9.56
2022-09-28T04:50:34.179Z,9.55
2022-09-28T04:51:34.201Z,9.54
2022-09-28T04:52:34.168Z,9.51
2022-09-28T04:53:34.164Z,9.58
2022-09-28T04:54:34.154Z,9.55
2022-09-28T04:55:34.186Z,9.46
2022-09-28T04:56:34.160Z,9.56
2022-09-28T04:57:34.126Z,9.56
2022-09-28T04:58:34.116Z,9.58
2022-09-28T04:59:34.112Z,9.59
2022-09-28T05:00:34.106Z,9.62
2022-09-28T05:01:34.216Z,9.64
2022-09-28T05:02:34.134Z,9.65
2022-09-28T05:03:34.087Z,9.56
2022-09-28T05:04:34.077Z,9.72
2022-09-28T05:05:34.068Z,9.61
2022-09-28T05:06:34.091Z,9.68
2022-09-28T05:07:34.061Z,9.72
2022-09-28T05:08:34.044Z,9.72
2022-09-28T05:09:38.298Z,9.65
2022-09-28T05:10:35.026Z,9.61
2022-09-28T05:11:34.045Z,9.65
2022-09-28T05:12:34.013Z,9.69
2022-09-28T05:13:34.010Z,9.61
2022-09-28T05:14:33.997Z,9.58
2022-09-28T05:15:33.990Z,9.68
2022-09-28T05:16:34.133Z,9.62
2022-09-28T05:17:33.975Z,9.56
2022-09-28T05:18:33.969Z,9.59
2022-09-28T05:19:33.962Z,9.66
2022-09-28T05:20:33.956Z,9.62
2022-09-28T05:21:33.973Z,9.61
2022-09-28T05:22:33.942Z,9.59
2022-09-28T05:23:34.675Z,9.64
2022-09-28T05:24:34.920Z,9.64
2022-09-28T05:25:33.910Z,9.55
2022-09-28T05:26:33.918Z,9.58
2022-09-28T05:27:34.897Z,9.73
2022-09-28T05:28:33.891Z,9.77
2022-09-28T05:29:33.882Z,9.61
2022-09-28T05:30:33.873Z,9.58
2022-09-28T05:31:33.917Z,9.64
2022-09-28T05:32:33.860Z,9.51
2022-09-28T05:33:33.857Z,9.61
2022-09-28T05:34:33.847Z,9.58
2022-09-28T05:35:33.836Z,9.62
2022-09-28T05:36:33.857Z,9.69
2022-09-28T05:37:33.821Z,9.68
2022-09-28T05:38:33.811Z,9.61
2022-09-28T05:39:33.805Z,9.64
2022-09-28T05:40:33.844Z,9.56
2022-09-28T05:41:33.816Z,9.61
2022-09-28T05:42:33.785Z,9.61
2022-09-28T05:43:33.792Z,9.64
2022-09-28T05:44:33.772Z,9.64
2022-09-28T05:45:33.857Z,9.72
2022-09-28T05:46:34.786Z,9.72
2022-09-28T05:47:33.744Z,9.65
2022-09-28T05:48:33.734Z,9.72
2022-09-28T05:49:33.725Z,9.73
2022-09-28T05:50:33.717Z,9.73
2022-09-28T05:51:33.737Z,9.69
2022-09-28T05:52:33.705Z,9.69
2022-09-28T05:53:33.692Z,9.69
2022-09-28T05:54:33.686Z,9.69
2022-09-28T05:55:33.755Z,9.62
2022-09-28T05:56:33.696Z,9.69
2022-09-28T05:57:33.661Z,9.76
2022-09-28T05:58:33.651Z,9.72
2022-09-28T05:59:33.644Z,9.69
2022-09-28T06:00:33.633Z,9.77
2022-09-28T06:01:33.703Z,9.82
2022-09-28T06:02:33.661Z,9.83
2022-09-28T06:03:33.617Z,9.82
2022-09-28T06:04:33.605Z,9.84
2022-09-28T06:05:33.615Z,9.82
2022-09-28T06:06:33.620Z,9.86
2022-09-28T06:07:33.585Z,9.84
2022-09-28T06:08:33.577Z,9.66
2022-09-28T06:09:33.569Z,9.77
2022-09-28T06:10:33.559Z,9.80
2022-09-28T06:11:33.584Z,9.82
2022-09-28T06:12:33.544Z,9.79
2022-09-28T06:13:33.539Z,9.77
2022-09-28T06:14:33.528Z,9.77
2022-09-28T06:15:33.523Z,9.80
2022-09-28T06:16:33.591Z,9.83
2022-09-28T06:17:33.506Z,9.79
2022-09-28T06:18:33.495Z,9.72
2022-09-28T06:19:33.493Z,9.79
2022-09-28T06:20:33.482Z,9.74
2022-09-28T06:21:33.499Z,9.72
2022-09-28T06:22:33.465Z,9.72
2022-09-28T06:23:33.458Z,9.76
2022-09-28T06:24:33.445Z,9.83
2022-09-28T06:25:33.439Z,9.74
2022-09-28T06:26:33.460Z,9.77
2022-09-28T06:27:33.425Z,9.87
2022-09-28T06:28:33.417Z,9.86
2022-09-28T06:29:33.415Z,9.82
2022-09-28T06:30:33.486Z,9.83
2022-09-28T06:31:33.426Z,9.84
2022-09-28T06:32:33.383Z,9.84
2022-09-28T06:33:33.377Z,9.89
2022-09-28T06:34:33.381Z,9.91
2022-09-28T06:35:33.361Z,9.94
2022-09-28T06:36:33.382Z,9.83
2022-09-28T06:37:33.348Z,9.92
2022-09-28T06:38:33.343Z,9.79
2022-09-28T06:39:33.332Z,9.92
2022-09-28T06:40:33.368Z,9.83
2022-09-28T06:41:33.348Z,9.80
2022-09-28T06:42:33.318Z,9.92
2022-09-28T06:43:34.493Z,9.83
2022-09-28T06:44:34.293Z,9.94
2022-09-28T06:45:33.288Z,9.95
2022-09-28T06:46:33.376Z,9.95
2022-09-28T06:47:33.274Z,9.98
2022-09-28T06:48:33.264Z,9.97
2022-09-28T06:49:33.256Z,9.92
2022-09-28T06:50:33.250Z,10.05
2022-09-28T06:51:33.268Z,10.04
2022-09-28T06:52:33.232Z,9.98
2022-09-28T06:53:33.229Z,10.07
2022-09-28T06:54:33.215Z,10.01
2022-09-28T06:55:33.211Z,10.10
2022-09-28T06:56:33.289Z,10.12
2022-09-28T06:57:33.199Z,10.12
2022-09-28T06:58:33.185Z,10.17
2022-09-28T06:59:33.183Z,10.07
2022-09-28T07:00:33.175Z,10.07
2022-09-28T07:01:33.222Z,10.10
2022-09-28T07:02:33.197Z,10.13
2022-09-28T07:03:33.149Z,10.23
2022-09-28T07:04:33.147Z,10.22
2022-09-28T07:05:33.138Z,10.31
2022-09-28T07:06:33.154Z,10.20
2022-09-28T07:07:33.123Z,10.26
2022-09-28T07:08:33.118Z,10.44
2022-09-28T07:09:35.059Z,10.51
2022-09-28T07:10:34.104Z,10.56
2022-09-28T07:11:33.113Z,10.59
2022-09-28T07:12:33.086Z,10.61
2022-09-28T07:13:49.870Z,10.59
2022-09-28T07:14:47.461Z,10.49
2022-09-28T07:15:35.060Z,10.54
2022-09-28T07:16:57.633Z,10.46
2022-09-28T07:17:42.224Z,10.61
2022-09-28T07:18:34.037Z,10.68
2022-09-28T07:19:33.023Z,10.64
2022-09-28T07:20:36.082Z,10.81
2022-09-28T07:21:34.029Z,10.90
2022-09-28T07:22:42.209Z,10.84
2022-09-28T07:23:46.491Z,10.81
2022-09-28T07:24:34.990Z,10.92
2022-09-28T07:25:32.987Z,10.93
2022-09-28T07:26:32.991Z,10.94
2022-09-28T07:27:32.969Z,10.96
2022-09-28T07:28:32.957Z,10.87
2022-09-28T07:29:32.946Z,10.86
2022-09-28T07:30:32.987Z,10.87
2022-09-28T07:31:32.956Z,10.89
2022-09-28T07:32:32.929Z,10.93
2022-09-28T07:33:32.931Z,10.87
2022-09-28T07:34:32.896Z,10.82
2022-09-28T07:35:33.896Z,10.72
2022-09-28T07:36:32.918Z,10.64
2022-09-28T07:37:32.881Z,10.59
2022-09-28T07:38:32.875Z,10.60
2022-09-28T07:39:32.869Z,10.57
2022-09-28T07:40:32.882Z,10.54
2022-09-28T07:41:32.881Z,10.59
2022-09-28T07:42:32.852Z,10.60
2022-09-28T07:43:32.844Z,10.57
2022-09-28T07:44:32.835Z,10.57
2022-09-28T07:45:32.883Z,10.61
2022-09-28T07:46:32.840Z,10.61
2022-09-28T07:47:35.231Z,10.53
2022-09-28T07:48:33.802Z,10.64
2022-09-28T07:49:32.792Z,10.75
2022-09-28T07:50:32.785Z,10.76
2022-09-28T07:51:32.808Z,10.82
2022-09-28T07:52:32.768Z,10.93
2022-09-28T07:53:32.757Z,11.00
2022-09-28T07:54:32.754Z,10.97
2022-09-28T07:55:33.389Z,11.04
2022-09-28T07:56:32.764Z,11.02
2022-09-28T07:57:32.742Z,11.10
2022-09-28T07:58:32.726Z,11.10
2022-09-28T07:59:32.713Z,11.36
2022-09-28T08:00:34.215Z,11.48
2022-09-28T08:01:33.782Z,11.50
2022-09-28T08:02:32.741Z,11.66
2022-09-28T08:03:32.686Z,11.95
2022-09-28T08:04:32.678Z,12.06
2022-09-28T08:05:32.673Z,12.22
2022-09-28T08:06:32.664Z,12.18
2022-09-28T08:07:32.683Z,12.12
2022-09-28T08:08:32.653Z,12.18
2022-09-28T08:09:32.642Z,12.36
2022-09-28T08:10:32.635Z,12.45
2022-09-28T08:11:32.625Z,12.64
2022-09-28T08:12:32.640Z,12.62
2022-09-28T08:13:32.615Z,12.91
2022-09-28T08:14:32.599Z,12.61
2022-09-28T08:15:32.601Z,12.64
2022-09-28T08:16:32.719Z,12.58
2022-09-28T08:17:32.608Z,12.75
2022-09-28T08:18:32.573Z,12.76
2022-09-28T08:19:32.565Z,12.97
2022-09-28T08:20:32.560Z,13.01
2022-09-28T08:21:32.547Z,13.00
2022-09-28T08:22:32.559Z,12.82
2022-09-28T08:23:32.528Z,12.82
2022-09-28T08:24:32.519Z,12.73
2022-09-28T08:25:32.513Z,12.54
2022-09-28T08:26:32.506Z,12.42
2022-09-28T08:27:32.520Z,12.25
2022-09-28T08:28:32.493Z,12.07
2022-09-28T08:29:32.483Z,12.04
2022-09-28T08:30:32.492Z,11.97
2022-09-28T08:31:32.468Z,11.95
2022-09-28T08:32:32.481Z,12.00
2022-09-28T08:33:32.449Z,11.91
2022-09-28T08:34:32.444Z,11.91
2022-09-28T08:35:32.438Z,12.00
2022-09-28T08:36:32.461Z,12.06
2022-09-28T08:37:32.441Z,11.99
2022-09-28T08:38:32.408Z,11.91
2022-09-28T08:39:32.403Z,11.90
2022-09-28T08:40:32.440Z,11.88
2022-09-28T08:41:32.411Z,11.88
2022-09-28T08:42:32.380Z,11.80
2022-09-28T08:43:32.374Z,11.87
2022-09-28T08:44:32.412Z,11.91
2022-09-28T08:45:32.356Z,11.91
2022-09-28T08:46:32.408Z,12.07
2022-09-28T08:47:32.343Z,12.27
2022-09-28T08:48:32.334Z,12.37
2022-09-28T08:49:32.680Z,12.55
2022-09-28T08:50:32.318Z,13.20
2022-09-28T08:51:32.333Z,13.37
2022-09-28T08:52:32.302Z,13.56
2022-09-28T08:53:32.288Z,14.18
2022-09-28T08:54:32.286Z,15.03
2022-09-28T08:55:32.275Z,15.79
2022-09-28T08:56:32.302Z,15.94
2022-09-28T08:57:32.263Z,16.23
2022-09-28T08:58:32.251Z,16.75
2022-09-28T08:59:32.249Z,17.24
2022-09-28T09:00:32.238Z,17.51
2022-09-28T09:01:32.325Z,16.75
2022-09-28T09:02:32.290Z,16.41
2022-09-28T09:03:32.215Z,15.82
2022-09-28T09:04:32.205Z,15.29
2022-09-28T09:05:32.199Z,14.92
2022-09-28T09:06:32.215Z,14.82
2022-09-28T09:07:32.182Z,14.28
2022-09-28T09:08:32.177Z,14.03
2022-09-28T09:09:32.168Z,13.72
2022-09-28T09:10:32.165Z,13.59
2022-09-28T09:11:33.183Z,14.40
2022-09-28T09:12:32.142Z,15.18
2022-09-28T09:13:32.137Z,15.79
2022-09-28T09:14:32.129Z,16.23
2022-09-28T09:15:32.121Z,16.58
2022-09-28T09:16:32.171Z,16.83
2022-09-28T09:17:32.104Z,16.65
2022-09-28T09:18:32.099Z,16.09
2022-09-28T09:19:32.091Z,15.62
2022-09-28T09:20:32.088Z,15.40
2022-09-28T09:21:32.104Z,15.57
2022-09-28T09:22:32.064Z,15.62
2022-09-28T09:23:32.056Z,15.37
2022-09-28T09:24:32.048Z,15.14
2022-09-28T09:25:35.405Z,14.77
2022-09-28T09:26:34.056Z,14.68
2022-09-28T09:27:32.032Z,14.47
2022-09-28T09:28:32.018Z,14.20
2022-09-28T09:29:32.006Z,14.00
2022-09-28T09:30:32.107Z,13.92
2022-09-28T09:31:32.024Z,13.90
2022-09-28T09:32:31.982Z,14.08
2022-09-28T09:33:31.978Z,13.85
2022-09-28T09:34:31.970Z,13.93
2022-09-28T09:35:31.965Z,13.87
2022-09-28T09:36:31.979Z,13.90
2022-09-28T09:37:31.948Z,14.00
2022-09-28T09:38:31.938Z,14.08
2022-09-28T09:39:31.933Z,14.22
2022-09-28T09:40:31.934Z,14.33
2022-09-28T09:41:31.938Z,14.23
2022-09-28T09:42:31.909Z,14.28
2022-09-28T09:43:32.022Z,14.35
2022-09-28T09:44:31.895Z,14.45
2022-09-28T09:45:31.892Z,14.23
2022-09-28T09:46:31.917Z,14.10
2022-09-28T09:47:31.871Z,13.93
2022-09-28T09:48:31.868Z,13.83
2022-09-28T09:49:31.861Z,13.63
2022-09-28T09:50:31.860Z,13.89
2022-09-28T09:51:31.866Z,13.81
2022-09-28T09:52:31.829Z,13.68
2022-09-28T09:53:34.838Z,13.68
2022-09-28T09:54:32.825Z,13.72
2022-09-28T09:55:31.812Z,13.92
2022-09-28T09:56:31.827Z,14.29
2022-09-28T09:57:31.801Z,14.68
2022-09-28T09:58:31.797Z,14.59
2022-09-28T09:59:31.772Z,14.59
2022-09-28T10:00:31.769Z,14.60
2022-09-28T10:01:31.866Z,14.45
2022-09-28T10:02:31.827Z,14.35
2022-09-28T10:03:31.750Z,14.32
2022-09-28T10:04:31.739Z,14.08
2022-09-28T10:05:31.728Z,13.89
2022-09-28T10:06:31.753Z,13.78
2022-09-28T10:07:31.711Z,13.71
2022-09-28T10:08:31.709Z,13.47
2022-09-28T10:09:31.700Z,13.30
2022-09-28T10:10:31.686Z,13.23
2022-09-28T10:11:31.710Z,13.03
2022-09-28T10:12:31.680Z,12.90
2022-09-28T10:13:31.661Z,12.67
2022-09-28T10:14:31.650Z,12.68
2022-09-28T10:15:31.646Z,12.53
2022-09-28T10:16:31.740Z,12.36
2022-09-28T10:17:31.635Z,12.35
2022-09-28T10:18:31.633Z,12.20
2022-09-28T10:19:31.623Z,12.25
2022-09-28T10:20:31.609Z,12.28
2022-09-28T10:21:31.602Z,12.35
2022-09-28T10:22:31.623Z,12.46
2022-09-28T10:23:31.600Z,12.55
2022-09-28T10:24:31.592Z,12.64
2022-09-28T10:25:31.574Z,12.65
2022-09-28T10:26:31.566Z,12.61
2022-09-28T10:27:31.588Z,12.68
2022-09-28T10:28:31.561Z,12.58
2022-09-28T10:29:31.554Z,12.62
2022-09-28T10:30:31.583Z,12.54
2022-09-28T10:31:31.529Z,12.57
2022-09-28T10:32:31.544Z,12.73
2022-09-28T10:33:31.516Z,12.61
2022-09-28T10:34:31.509Z,12.67
2022-09-28T10:35:31.501Z,12.61
2022-09-28T10:36:31.490Z,12.57
2022-09-28T10:37:31.502Z,12.58
2022-09-28T10:38:31.472Z,12.55
2022-09-28T10:39:31.467Z,12.49
2022-09-28T10:40:31.532Z,12.61
2022-09-28T10:41:31.452Z,12.58
2022-09-28T10:42:31.468Z,12.65
2022-09-28T10:43:31.438Z,12.75
2022-09-28T10:44:31.424Z,12.73
2022-09-28T10:45:31.418Z,12.98
2022-09-28T10:46:31.499Z,13.05
2022-09-28T10:47:32.420Z,13.18
2022-09-28T10:48:31.394Z,13.31
2022-09-28T10:49:31.395Z,13.27
2022-09-28T10:50:31.376Z,13.37
2022-09-28T10:51:31.388Z,13.49
2022-09-28T10:52:31.378Z,13.57
2022-09-28T10:53:31.351Z,13.50
2022-09-28T10:54:31.344Z,13.60
2022-09-28T10:55:31.329Z,13.79
2022-09-28T10:56:31.329Z,13.96
2022-09-28T10:57:31.353Z,14.04
2022-09-28T10:58:31.314Z,14.35
2022-09-28T10:59:31.336Z,14.48
2022-09-28T11:00:31.302Z,14.66
2022-09-28T11:01:31.397Z,14.77
2022-09-28T11:02:35.462Z,14.92
2022-09-28T11:03:32.272Z,15.10
2022-09-28T11:04:31.274Z,15.36
2022-09-28T11:05:31.261Z,15.40
2022-09-28T11:06:31.266Z,15.42
2022-09-28T11:07:31.266Z,15.67
2022-09-28T11:08:31.241Z,15.57
2022-09-28T11:09:31.509Z,15.58
2022-09-28T11:10:31.218Z,15.61
2022-09-28T11:11:31.220Z,15.79
2022-09-28T11:12:31.228Z,15.75
2022-09-28T11:13:31.196Z,15.68
2022-09-28T11:14:31.195Z,15.47
2022-09-28T11:15:31.200Z,15.40
2022-09-28T11:16:31.277Z,15.59
2022-09-28T11:17:31.192Z,15.55
2022-09-28T11:18:31.167Z,15.67
2022-09-28T11:19:31.167Z,15.70
2022-09-28T11:20:31.157Z,15.83
2022-09-28T11:21:31.156Z,15.65
2022-09-28T11:22:31.183Z,15.29
2022-09-28T11:23:31.125Z,15.14
2022-09-28T11:24:31.108Z,15.02
2022-09-28T11:25:31.104Z,14.60
2022-09-28T11:26:31.099Z,14.22
2022-09-28T11:27:31.107Z,14.00
2022-09-28T11:28:31.086Z,14.00
2022-09-28T11:29:31.070Z,14.04
2022-09-28T11:30:31.132Z,14.32
2022-09-28T11:31:31.052Z,14.43
2022-09-28T11:32:31.067Z,14.65
2022-09-28T11:33:31.057Z,14.79
2022-09-28T11:34:54.663Z,14.91
2022-09-28T11:35:33.023Z,15.09
2022-09-28T11:36:31.011Z,15.27
2022-09-28T11:37:31.032Z,15.25
2022-09-28T11:38:30.997Z,15.17
2022-09-28T11:39:30.991Z,15.00
2022-09-28T11:40:31.057Z,14.92
2022-09-28T11:41:30.978Z,14.86
2022-09-28T11:42:30.995Z,14.81
2022-09-28T11:43:30.965Z,14.88
2022-09-28T11:44:33.333Z,14.79
2022-09-28T11:45:31.958Z,14.72
2022-09-28T11:46:31.007Z,14.78
2022-09-28T11:47:30.963Z,14.77
2022-09-28T11:48:30.928Z,14.60
2022-09-28T11:49:30.911Z,14.45
2022-09-28T11:50:30.916Z,14.33
2022-09-28T11:51:30.899Z,14.35
2022-09-28T11:52:30.922Z,14.35
2022-09-28T11:53:30.890Z,14.28
2022-09-28T11:54:30.885Z,14.07
2022-09-28T11:55:30.877Z,14.04
2022-09-28T11:56:30.860Z,13.86
2022-09-28T11:57:30.878Z,13.67
2022-09-28T11:58:30.846Z,13.54
2022-09-28T11:59:30.836Z,13.59
2022-09-28T12:00:30.829Z,13.62
2022-09-28T12:01:30.823Z,13.54
2022-09-28T12:02:30.919Z,13.56
2022-09-28T12:03:30.969Z,13.62
2022-09-28T12:04:30.798Z,13.62
2022-09-28T12:05:30.792Z,13.50
2022-09-28T12:06:30.784Z,13.54
2022-09-28T12:07:30.804Z,13.52
2022-09-28T12:08:30.769Z,13.59
2022-09-28T12:09:30.792Z,13.50
2022-09-28T12:10:30.754Z,13.56
2022-09-28T12:11:30.746Z,13.57
2022-09-28T12:12:30.768Z,13.72
2022-09-28T12:13:30.725Z,13.60
2022-09-28T12:14:30.726Z,13.59
2022-09-28T12:15:42.209Z,13.74
2022-09-28T12:17:03.616Z,13.71
2022-09-28T12:17:32.764Z,13.75
2022-09-28T12:18:30.688Z,13.85
2022-09-28T12:19:30.683Z,13.70
2022-09-28T12:20:30.697Z,13.81
2022-09-28T12:21:30.672Z,13.83
2022-09-28T12:22:30.686Z,13.89
2022-09-28T12:23:30.652Z,13.81
2022-09-28T12:24:30.647Z,13.92
2022-09-28T12:25:30.638Z,13.74
2022-09-28T12:26:34.638Z,13.74
2022-09-28T12:27:31.640Z,13.65
2022-09-28T12:28:30.614Z,13.54
2022-09-28T12:29:30.599Z,13.56
2022-09-28T12:30:30.635Z,13.41
2022-09-28T12:31:30.586Z,13.33
2022-09-28T12:32:30.604Z,13.09
2022-09-28T12:33:30.573Z,13.11
2022-09-28T12:34:30.564Z,13.31
2022-09-28T12:35:30.564Z,13.31
2022-09-28T12:36:30.550Z,13.18
2022-09-28T12:37:30.570Z,13.03
2022-09-28T12:38:30.531Z,12.93
2022-09-28T12:39:46.840Z,12.75
2022-09-28T12:40:32.582Z,12.73
2022-09-28T12:41:30.513Z,12.64
2022-09-28T12:42:30.533Z,12.45
2022-09-28T12:43:30.502Z,12.36
2022-09-28T12:44:30.488Z,12.37
2022-09-28T12:45:38.451Z,12.25
2022-09-28T12:46:31.579Z,12.49
2022-09-28T12:47:30.489Z,12.24
2022-09-28T12:48:30.483Z,12.28
2022-09-28T12:50:33.441Z,12.36
2022-09-28T12:50:42.716Z,12.29
2022-09-28T12:51:32.427Z,12.46
2022-09-28T12:52:30.545Z,12.49
2022-09-28T12:53:30.422Z,12.49
2022-09-28T12:54:30.408Z,12.62
2022-09-28T12:55:30.403Z,12.70
2022-09-28T12:56:30.396Z,12.85
2022-09-28T12:57:31.417Z,12.95
2022-09-28T12:58:30.390Z,13.03
2022-09-28T12:59:30.371Z,13.11
2022-09-28T13:00:30.369Z,13.41
2022-09-28T13:01:30.428Z,13.37
2022-09-28T13:02:30.437Z,13.47
2022-09-28T13:03:30.344Z,13.53
2022-09-28T13:04:30.334Z,13.52
2022-09-28T13:05:30.332Z,13.56